createdAt,value
2018-07-20T00:01:12.007Z,4.97
2018-07-20T00:03:40.332Z,4.13
2018-07-20T00:06:08.670Z,4.10
2018-07-20T00:08:36.988Z,5.63
2018-07-20T00:11:05.369Z,4.40
2018-07-20T00:13:33.707Z,4.83
2018-07-20T00:16:02.024Z,4.70
2018-07-20T00:18:30.329Z,4.60
2018-07-20T00:20:58.635Z,5.10
2018-07-20T00:23:26.984Z,5.20
2018-07-20T00:25:55.329Z,4.77
2018-07-20T00:28:23.708Z,4.77
2018-07-20T00:30:52.060Z,5.03
2018-07-20T00:33:20.404Z,5.17
2018-07-20T00:35:48.731Z,4.77
2018-07-20T00:38:17.047Z,5.17
2018-07-20T00:40:45.373Z,4.93
2018-07-20T00:43:14.013Z,4.40
2018-07-20T00:45:42.324Z,5.00
2018-07-20T00:48:10.647Z,5.27
2018-07-20T00:50:38.959Z,5.03
2018-07-20T00:53:07.318Z,5.33
2018-07-20T00:55:35.644Z,5.30
2018-07-20T00:58:03.982Z,5.40
2018-07-20T01:00:32.319Z,4.67
2018-07-20T01:03:00.670Z,5.83
2018-07-20T01:05:29.043Z,5.43
2018-07-20T01:07:57.441Z,5.53
2018-07-20T01:10:25.788Z,4.50
2018-07-20T01:12:54.117Z,5.13
2018-07-20T01:15:22.493Z,5.67
2018-07-20T01:17:50.817Z,4.83
2018-07-20T01:20:19.130Z,4.60
2018-07-20T01:22:47.674Z,5.13
2018-07-20T01:25:16.130Z,4.77
2018-07-20T01:27:44.438Z,4.73
2018-07-20T01:30:12.779Z,4.93
2018-07-20T01:32:41.084Z,4.10
2018-07-20T01:35:09.435Z,5.10
2018-07-20T01:37:37.856Z,4.63
2018-07-20T01:40:06.165Z,4.87
2018-07-20T01:42:34.540Z,4.90
2018-07-20T01:45:02.885Z,4.20
2018-07-20T01:47:31.232Z,4.20
2018-07-20T01:49:59.551Z,4.70
2018-07-20T01:52:27.887Z,5.13
2018-07-20T01:54:56.233Z,5.00
2018-07-20T01:57:24.563Z,5.40
2018-07-20T01:59:52.890Z,5.00
2018-07-20T02:02:21.200Z,4.43
2018-07-20T02:04:49.493Z,5.00
2018-07-20T02:07:17.803Z,5.33
2018-07-20T02:09:46.131Z,4.87
2018-07-20T02:12:14.462Z,5.10
2018-07-20T02:14:42.771Z,4.77
2018-07-20T02:17:11.098Z,4.60
2018-07-20T02:19:39.431Z,4.70
2018-07-20T02:22:07.747Z,5.30
2018-07-20T02:24:36.065Z,4.70
2018-07-20T02:27:04.405Z,5.57
2018-07-20T02:29:32.814Z,4.30
2018-07-20T02:32:01.100Z,4.70
2018-07-20T02:34:29.441Z,5.33
2018-07-20T02:36:57.756Z,5.37
2018-07-20T02:39:26.105Z,5.70
2018-07-20T02:41:54.436Z,4.70
2018-07-20T02:44:22.882Z,5.20
2018-07-20T02:46:51.205Z,5.17
2018-07-20T02:49:19.522Z,4.50
2018-07-20T02:51:47.860Z,5.30
2018-07-20T02:54:16.196Z,4.80
2018-07-20T02:56:44.498Z,5.13
2018-07-20T02:59:12.829Z,5.13
2018-07-20T03:01:41.184Z,4.57
2018-07-20T03:04:09.516Z,5.10
2018-07-20T03:06:37.903Z,4.33
2018-07-20T03:09:09.444Z,4.97
2018-07-20T03:11:37.785Z,5.30
2018-07-20T03:14:06.209Z,5.17
2018-07-20T03:16:34.546Z,7.77
2018-07-20T03:19:02.869Z,9.80
2018-07-20T03:21:31.212Z,10.13
2018-07-20T03:23:59.563Z,8.27
2018-07-20T03:26:27.928Z,8.03
2018-07-20T03:28:56.245Z,7.73
2018-07-20T03:31:24.588Z,4.80
2018-07-20T03:33:52.905Z,4.83
2018-07-20T03:36:21.252Z,5.07
2018-07-20T03:38:49.588Z,5.17
2018-07-20T03:41:17.909Z,5.40
2018-07-20T03:43:46.244Z,5.03
2018-07-20T03:46:14.560Z,4.50
2018-07-20T03:48:42.868Z,5.60
2018-07-20T03:51:11.199Z,5.17
2018-07-20T03:53:39.560Z,5.13
2018-07-20T03:56:07.902Z,5.27
2018-07-20T03:58:36.247Z,5.70
2018-07-20T04:01:04.628Z,5.50
2018-07-20T04:03:32.987Z,5.87
2018-07-20T04:06:01.306Z,5.83
2018-07-20T04:08:29.623Z,5.60
2018-07-20T04:10:57.945Z,5.50
2018-07-20T04:13:26.240Z,6.27
2018-07-20T04:15:54.576Z,5.33
2018-07-20T04:18:22.892Z,5.57
2018-07-20T04:20:51.197Z,5.10
2018-07-20T04:23:19.560Z,4.93
2018-07-20T04:25:47.877Z,5.23
2018-07-20T04:28:16.248Z,5.93
2018-07-20T04:30:44.583Z,5.23
2018-07-20T04:33:12.889Z,5.00
2018-07-20T04:35:41.220Z,5.63
2018-07-20T04:38:09.542Z,5.77
2018-07-20T04:40:37.912Z,5.17
2018-07-20T04:43:06.257Z,5.57
2018-07-20T04:45:34.580Z,5.43
2018-07-20T04:48:02.962Z,5.70
2018-07-20T04:50:31.301Z,5.03
2018-07-20T04:52:59.649Z,5.40
2018-07-20T04:55:28.017Z,5.17
2018-07-20T04:57:56.430Z,4.50
2018-07-20T05:00:24.877Z,4.73
2018-07-20T05:02:53.222Z,4.60
2018-07-20T05:05:21.566Z,4.73
2018-07-20T05:07:49.904Z,4.27
2018-07-20T05:10:18.256Z,3.57
2018-07-20T05:12:46.699Z,4.70
2018-07-20T05:15:15.044Z,4.90
2018-07-20T05:17:43.388Z,4.60
2018-07-20T05:20:11.735Z,4.30
2018-07-20T05:22:40.076Z,4.37
2018-07-20T05:25:08.424Z,4.67
2018-07-20T05:27:36.772Z,4.50
2018-07-20T05:30:05.665Z,4.23
2018-07-20T05:32:34.048Z,4.53
2018-07-20T05:35:02.380Z,4.33
2018-07-20T05:37:30.701Z,4.60
2018-07-20T05:39:58.994Z,4.47
2018-07-20T05:42:27.320Z,4.00
2018-07-20T05:44:55.687Z,3.90
2018-07-20T05:47:24.093Z,4.20
2018-07-20T05:49:52.458Z,3.83
2018-07-20T05:52:20.800Z,3.80
2018-07-20T05:54:49.179Z,3.90
2018-07-20T05:57:17.553Z,3.60
2018-07-20T05:59:46.126Z,3.60
2018-07-20T06:02:14.916Z,3.00
2018-07-20T06:04:43.271Z,3.40
2018-07-20T06:07:11.630Z,4.00
2018-07-20T06:09:39.993Z,3.27
2018-07-20T06:12:08.345Z,3.40
2018-07-20T06:14:36.710Z,3.40
2018-07-20T06:17:05.049Z,3.13
2018-07-20T06:19:33.381Z,3.70
2018-07-20T06:22:01.724Z,3.60
2018-07-20T06:24:30.075Z,3.30
2018-07-20T06:26:58.435Z,3.17
2018-07-20T06:29:26.768Z,3.33
2018-07-20T06:31:55.106Z,3.40
2018-07-20T06:34:23.445Z,2.77
2018-07-20T06:36:51.775Z,3.20
2018-07-20T06:39:20.104Z,3.20
2018-07-20T06:41:48.479Z,3.20
2018-07-20T06:44:16.828Z,2.90
2018-07-20T06:46:45.186Z,3.37
2018-07-20T06:49:13.538Z,2.67
2018-07-20T06:51:41.878Z,3.20
2018-07-20T06:54:10.195Z,2.87
2018-07-20T06:56:38.526Z,2.75
2018-07-20T06:59:06.880Z,2.80
2018-07-20T07:01:35.208Z,2.72
2018-07-20T07:04:03.627Z,2.08
2018-07-20T07:06:31.965Z,2.15
2018-07-20T07:09:00.379Z,2.80
2018-07-20T07:11:28.724Z,2.27
2018-07-20T07:13:57.071Z,2.75
2018-07-20T07:16:25.404Z,2.20
2018-07-20T07:18:53.731Z,2.42
2018-07-20T07:21:22.136Z,2.33
2018-07-20T07:23:50.513Z,2.30
2018-07-20T07:26:18.829Z,2.25
2018-07-20T07:28:47.173Z,2.37
2018-07-20T07:31:15.519Z,2.52
2018-07-20T07:33:43.864Z,2.65
2018-07-20T07:36:12.223Z,2.30
2018-07-20T07:38:40.585Z,2.37
2018-07-20T07:41:09.079Z,2.40
2018-07-20T07:43:37.415Z,4.00
2018-07-20T07:46:05.802Z,3.55
2018-07-20T07:48:34.125Z,2.80
2018-07-20T07:51:02.436Z,2.25
2018-07-20T07:53:30.855Z,2.92
2018-07-20T07:55:59.179Z,5.37
2018-07-20T07:58:27.521Z,4.80
2018-07-20T08:00:55.838Z,2.98
2018-07-20T08:03:24.177Z,3.77
2018-07-20T08:05:52.519Z,2.87
2018-07-20T08:08:20.854Z,7.00
2018-07-20T08:10:49.176Z,3.00
2018-07-20T08:13:17.497Z,2.80
2018-07-20T08:15:45.885Z,3.05
2018-07-20T08:18:14.217Z,3.42
2018-07-20T08:20:42.618Z,3.75
2018-07-20T08:23:10.923Z,3.90
2018-07-20T08:25:39.272Z,3.72
2018-07-20T08:28:07.610Z,4.15
2018-07-20T08:30:35.936Z,4.33
2018-07-20T08:33:04.277Z,4.90
2018-07-20T08:35:32.625Z,5.47
2018-07-20T08:38:00.937Z,6.00
2018-07-20T08:40:29.366Z,6.65
2018-07-20T08:42:57.793Z,4.53
2018-07-20T08:45:26.171Z,4.95
2018-07-20T08:47:54.584Z,4.83
2018-07-20T08:50:22.915Z,4.65
2018-07-20T08:52:51.234Z,4.67
2018-07-20T08:55:19.528Z,4.30
2018-07-20T08:57:47.991Z,4.35
2018-07-20T09:00:16.305Z,4.75
2018-07-20T09:02:44.638Z,6.85
2018-07-20T09:05:12.944Z,4.35
2018-07-20T09:07:41.284Z,4.70
2018-07-20T09:10:09.905Z,6.10
2018-07-20T09:12:38.228Z,5.80
2018-07-20T09:15:06.568Z,5.67
2018-07-20T09:17:34.901Z,6.05
2018-07-20T09:20:03.233Z,6.62
2018-07-20T09:22:31.556Z,6.28
2018-07-20T09:24:59.874Z,6.45
2018-07-20T09:27:28.212Z,6.35
2018-07-20T09:29:56.527Z,6.65
2018-07-20T09:32:24.851Z,6.00
2018-07-20T09:34:53.176Z,6.55
2018-07-20T09:37:21.495Z,6.97
2018-07-20T09:39:49.837Z,6.92
2018-07-20T09:42:18.207Z,7.03
2018-07-20T09:44:46.560Z,7.33
2018-07-20T09:47:14.885Z,6.42
2018-07-20T09:49:43.251Z,5.50
2018-07-20T09:52:11.669Z,6.83
2018-07-20T09:54:40.005Z,6.15
2018-07-20T09:57:08.932Z,6.10
2018-07-20T09:59:37.281Z,5.90
2018-07-20T10:02:05.780Z,5.78
2018-07-20T10:04:34.131Z,5.72
2018-07-20T10:07:02.449Z,5.33
2018-07-20T10:09:30.788Z,4.85
2018-07-20T10:11:59.166Z,4.33
2018-07-20T10:14:27.516Z,4.55
2018-07-20T10:16:55.863Z,4.08
2018-07-20T10:19:24.202Z,4.22
2018-07-20T10:21:52.515Z,3.62
2018-07-20T10:24:20.823Z,3.65
2018-07-20T10:26:49.154Z,2.58
2018-07-20T10:29:17.512Z,2.60
2018-07-20T10:31:45.851Z,2.83
2018-07-20T10:34:14.165Z,2.60
2018-07-20T10:36:42.519Z,2.30
2018-07-20T10:39:11.320Z,2.02
2018-07-20T10:41:39.655Z,1.90
2018-07-20T10:44:07.990Z,2.20
2018-07-20T10:46:36.397Z,1.80
2018-07-20T10:49:04.980Z,2.02
2018-07-20T10:51:33.307Z,2.08
2018-07-20T10:54:01.610Z,1.98
2018-07-20T10:56:29.910Z,2.05
2018-07-20T10:58:58.222Z,1.75
2018-07-20T11:01:26.632Z,2.17
2018-07-20T11:03:55.022Z,2.02
2018-07-20T11:06:23.348Z,2.27
2018-07-20T11:08:51.633Z,2.30
2018-07-20T11:11:19.938Z,2.20
2018-07-20T11:13:48.277Z,2.47
2018-07-20T11:16:16.620Z,2.30
2018-07-20T11:18:44.946Z,2.55
2018-07-20T11:21:13.272Z,2.52
2018-07-20T11:23:41.589Z,2.58
2018-07-20T11:26:09.999Z,2.40
2018-07-20T11:28:38.337Z,2.08
2018-07-20T11:31:06.655Z,2.50
2018-07-20T11:33:34.992Z,2.72
2018-07-20T11:36:03.381Z,2.60
2018-07-20T11:38:31.690Z,2.47
2018-07-20T11:41:00.036Z,2.40
2018-07-20T11:43:28.369Z,2.40
2018-07-20T11:45:56.725Z,2.73
2018-07-20T11:48:25.855Z,2.77
2018-07-20T11:50:54.200Z,3.00
2018-07-20T11:53:22.508Z,3.20
2018-07-20T11:55:50.898Z,2.87
2018-07-20T11:58:19.186Z,2.60
2018-07-20T12:00:47.510Z,3.50
2018-07-20T12:03:15.831Z,3.07
2018-07-20T12:05:44.153Z,3.03
2018-07-20T12:08:12.468Z,3.00
2018-07-20T12:10:40.846Z,2.80
2018-07-20T12:13:09.202Z,3.47
2018-07-20T12:15:37.530Z,2.93
2018-07-20T12:18:05.965Z,2.80
2018-07-20T12:20:34.268Z,3.00
2018-07-20T12:23:02.600Z,2.83
2018-07-20T12:25:30.947Z,3.13
2018-07-20T12:27:59.271Z,2.70
2018-07-20T12:30:27.620Z,2.67
2018-07-20T12:32:55.953Z,2.57
2018-07-20T12:35:24.303Z,2.90
2018-07-20T12:37:52.620Z,2.90
2018-07-20T12:40:21.011Z,3.30
2018-07-20T12:42:49.364Z,3.00
2018-07-20T12:45:17.693Z,3.30
2018-07-20T12:47:46.068Z,3.10
2018-07-20T12:50:14.456Z,3.10
2018-07-20T12:52:42.726Z,3.13
2018-07-20T12:55:11.059Z,3.17
2018-07-20T12:57:39.379Z,3.13
2018-07-20T13:00:07.714Z,3.23
2018-07-20T13:02:36.032Z,3.13
2018-07-20T13:05:04.724Z,3.20
2018-07-20T13:07:33.055Z,3.43
2018-07-20T13:10:01.361Z,3.23
2018-07-20T13:12:29.691Z,3.20
2018-07-20T13:14:57.994Z,3.13
2018-07-20T13:17:26.323Z,3.57
2018-07-20T13:19:54.642Z,3.20
2018-07-20T13:22:22.973Z,3.17
2018-07-20T13:24:51.341Z,3.13
2018-07-20T13:27:19.665Z,3.10
2018-07-20T13:29:47.992Z,3.37
2018-07-20T13:32:16.353Z,3.60
2018-07-20T13:34:45.746Z,3.03
2018-07-20T13:37:14.076Z,3.40
2018-07-20T13:39:42.410Z,3.23
2018-07-20T13:42:10.744Z,2.97
2018-07-20T13:44:39.047Z,3.13
2018-07-20T13:47:07.360Z,3.10
2018-07-20T13:49:35.687Z,3.50
2018-07-20T13:52:04.042Z,3.17
2018-07-20T13:54:32.402Z,3.23
2018-07-20T13:57:00.716Z,3.50
2018-07-20T13:59:29.050Z,3.60
2018-07-20T14:01:57.373Z,4.27
2018-07-20T14:04:25.694Z,3.63
2018-07-20T14:06:54.052Z,3.20
2018-07-20T14:09:22.510Z,4.47
2018-07-20T14:11:50.851Z,4.40
2018-07-20T14:14:19.218Z,3.87
2018-07-20T14:16:47.614Z,3.10
2018-07-20T14:19:15.922Z,3.30
2018-07-20T14:21:44.252Z,2.83
2018-07-20T14:24:12.578Z,3.17
2018-07-20T14:26:40.915Z,3.40
2018-07-20T14:29:09.238Z,3.70
2018-07-20T14:31:37.628Z,3.57
2018-07-20T14:34:05.997Z,3.40
2018-07-20T14:36:34.341Z,3.87
2018-07-20T14:39:02.692Z,3.20
2018-07-20T14:41:31.010Z,3.13
2018-07-20T14:43:59.362Z,3.47
2018-07-20T14:46:27.671Z,3.43
2018-07-20T14:48:56.013Z,3.07
2018-07-20T14:51:24.397Z,3.33
2018-07-20T14:53:52.704Z,3.37
2018-07-20T14:56:21.029Z,3.13
2018-07-20T14:58:49.407Z,3.13
2018-07-20T15:01:17.760Z,3.87
2018-07-20T15:03:46.077Z,3.97
2018-07-20T15:06:14.444Z,4.30
2018-07-20T15:08:42.856Z,3.90
2018-07-20T15:11:11.219Z,4.40
2018-07-20T15:13:39.554Z,4.47
2018-07-20T15:16:07.955Z,4.13
2018-07-20T15:18:36.320Z,3.73
2018-07-20T15:21:04.635Z,3.90
2018-07-20T15:23:33.063Z,4.20
2018-07-20T15:26:01.351Z,3.43
2018-07-20T15:28:29.690Z,3.60
2018-07-20T15:30:58.006Z,3.47
2018-07-20T15:33:26.376Z,3.40
2018-07-20T15:35:54.727Z,3.87
2018-07-20T15:38:23.099Z,3.47
2018-07-20T15:40:51.437Z,3.73
2018-07-20T15:43:19.772Z,3.60
2018-07-20T15:45:52.100Z,3.27
2018-07-20T15:48:16.455Z,3.83
2018-07-20T15:50:44.795Z,3.13
2018-07-20T15:53:39.824Z,2.97
2018-07-20T15:55:41.557Z,4.00
2018-07-20T15:58:09.874Z,3.73
2018-07-20T16:00:38.204Z,3.70
2018-07-20T16:03:06.657Z,4.07
2018-07-20T16:05:35.043Z,3.67
2018-07-20T16:08:03.375Z,3.70
2018-07-20T16:10:31.702Z,3.30
2018-07-20T16:13:00.065Z,3.27
2018-07-20T16:15:28.405Z,3.30
2018-07-20T16:17:56.740Z,3.37
2018-07-20T16:20:25.080Z,3.10
2018-07-20T16:22:53.441Z,3.17
2018-07-20T16:25:21.764Z,3.37
2018-07-20T16:27:50.126Z,3.47
2018-07-20T16:30:18.451Z,5.47
2018-07-20T16:32:46.768Z,4.63
2018-07-20T16:35:15.120Z,11.13
2018-07-20T16:37:43.462Z,3.50
2018-07-20T16:40:11.824Z,2.97
2018-07-20T16:42:40.224Z,3.50
2018-07-20T16:45:08.549Z,3.20
2018-07-20T16:47:36.868Z,5.40
2018-07-20T16:50:05.480Z,4.53
2018-07-20T16:52:33.829Z,3.57
2018-07-20T16:55:02.176Z,4.53
2018-07-20T16:57:30.510Z,3.73
2018-07-20T16:59:58.853Z,3.50
2018-07-20T17:02:27.200Z,3.37
2018-07-20T17:04:55.547Z,6.00
2018-07-20T17:07:23.915Z,7.83
2018-07-20T17:09:52.234Z,4.67
2018-07-20T17:12:20.592Z,5.40
2018-07-20T17:14:48.919Z,4.10
2018-07-20T17:17:17.360Z,3.90
2018-07-20T17:19:45.722Z,4.50
2018-07-20T17:22:14.028Z,4.33
2018-07-20T17:24:42.396Z,4.10
2018-07-20T17:27:10.732Z,4.17
2018-07-20T17:29:39.068Z,4.33
2018-07-20T17:32:07.442Z,4.03
2018-07-20T17:34:35.748Z,4.20
2018-07-20T17:37:04.134Z,4.50
2018-07-20T17:39:32.449Z,4.70
2018-07-20T17:42:00.765Z,4.10
2018-07-20T17:44:29.066Z,4.43
2018-07-20T17:46:57.379Z,4.10
2018-07-20T17:49:25.705Z,4.00
2018-07-20T17:51:54.052Z,4.27
2018-07-20T17:54:22.370Z,4.50
2018-07-20T17:56:50.734Z,3.33
2018-07-20T17:59:19.191Z,3.90
2018-07-20T18:01:47.524Z,3.30
2018-07-20T18:04:15.844Z,3.27
2018-07-20T18:06:44.208Z,3.57
2018-07-20T18:09:12.584Z,3.63
2018-07-20T18:11:40.946Z,3.30
2018-07-20T18:14:09.284Z,3.50
2018-07-20T18:16:37.596Z,3.57
2018-07-20T18:19:05.940Z,3.60
2018-07-20T18:21:34.279Z,3.03
2018-07-20T18:24:02.612Z,3.43
2018-07-20T18:26:30.976Z,3.33
2018-07-20T18:28:59.278Z,3.20
2018-07-20T18:31:27.671Z,3.10
2018-07-20T18:33:56.142Z,2.93
2018-07-20T18:36:24.365Z,3.10
2018-07-20T18:38:52.797Z,3.57
2018-07-20T18:41:21.122Z,2.97
2018-07-20T18:43:49.473Z,3.47
2018-07-20T18:46:17.830Z,3.27
2018-07-20T18:48:46.138Z,2.43
2018-07-20T18:51:14.491Z,3.23
2018-07-20T18:53:42.837Z,2.60
2018-07-20T18:56:11.172Z,2.60
2018-07-20T18:58:39.537Z,2.23
2018-07-20T19:01:08.001Z,2.20
2018-07-20T19:03:36.328Z,2.17
2018-07-20T19:06:04.655Z,2.30
2018-07-20T19:08:32.984Z,2.50
2018-07-20T19:11:01.306Z,2.60
2018-07-20T19:13:29.717Z,2.43
2018-07-20T19:15:58.044Z,2.30
2018-07-20T19:18:26.484Z,2.40
2018-07-20T19:20:54.864Z,2.17
2018-07-20T19:23:23.282Z,2.23
2018-07-20T19:25:51.620Z,2.10
2018-07-20T19:28:19.977Z,2.40
2018-07-20T19:30:48.318Z,2.13
2018-07-20T19:33:16.615Z,2.63
2018-07-20T19:35:44.918Z,2.47
2018-07-20T19:38:13.322Z,2.33
2018-07-20T19:40:41.642Z,2.20
2018-07-20T19:43:10.037Z,2.60
2018-07-20T19:45:38.394Z,1.80
2018-07-20T19:48:06.727Z,2.07
2018-07-20T19:50:35.078Z,2.20
2018-07-20T19:53:03.463Z,2.67
2018-07-20T19:55:31.803Z,3.23
2018-07-20T19:58:00.123Z,3.50
2018-07-20T20:00:28.454Z,3.97
2018-07-20T20:02:56.794Z,3.17
2018-07-20T20:05:25.119Z,3.10
2018-07-20T20:07:53.455Z,3.33
2018-07-20T20:10:21.804Z,2.93
2018-07-20T20:12:50.265Z,2.93
2018-07-20T20:15:18.657Z,3.50
2018-07-20T20:17:46.983Z,3.10
2018-07-20T20:20:15.312Z,3.57
2018-07-20T20:22:44.697Z,4.00
2018-07-20T20:25:13.128Z,5.83
2018-07-20T20:27:41.879Z,6.37
2018-07-20T20:30:10.228Z,6.47
2018-07-20T20:32:38.603Z,5.90
2018-07-20T20:35:06.982Z,4.10
2018-07-20T20:37:35.329Z,3.03
2018-07-20T20:40:03.666Z,3.47
2018-07-20T20:42:31.971Z,3.33
2018-07-20T20:45:00.298Z,2.73
2018-07-20T20:47:28.610Z,2.53
2018-07-20T20:49:56.958Z,2.67
2018-07-20T20:52:25.334Z,2.53
2018-07-20T20:54:53.648Z,2.57
2018-07-20T20:57:21.984Z,2.93
2018-07-20T20:59:50.307Z,2.57
2018-07-20T21:02:18.683Z,2.30
2018-07-20T21:04:47.093Z,2.20
2018-07-20T21:07:15.416Z,2.83
2018-07-20T21:09:43.739Z,2.50
2018-07-20T21:12:12.253Z,2.00
2018-07-20T21:14:40.390Z,2.30
2018-07-20T21:17:08.717Z,2.43
2018-07-20T21:19:37.040Z,2.40
2018-07-20T21:22:05.393Z,2.30
2018-07-20T21:24:33.695Z,2.97
2018-07-20T21:27:02.050Z,2.00
2018-07-20T21:29:30.356Z,1.77
2018-07-20T21:31:58.712Z,2.73
2018-07-20T21:34:27.165Z,2.97
2018-07-20T21:36:55.474Z,2.40
2018-07-20T21:39:23.788Z,3.57
2018-07-20T21:41:52.128Z,2.73
2018-07-20T21:44:20.461Z,3.13
2018-07-20T21:46:48.780Z,3.37
2018-07-20T21:49:17.099Z,3.40
2018-07-20T21:51:45.436Z,2.67
2018-07-20T21:54:13.786Z,3.47
2018-07-20T21:56:42.137Z,2.43
2018-07-20T21:59:10.495Z,2.57
2018-07-20T22:01:38.822Z,3.50
2018-07-20T22:04:07.146Z,3.30
2018-07-20T22:06:35.515Z,2.40
2018-07-20T22:09:04.700Z,2.33
2018-07-20T22:11:33.035Z,2.30
2018-07-20T22:14:01.363Z,3.30
2018-07-20T22:16:29.732Z,3.23
2018-07-20T22:18:58.139Z,2.63
2018-07-20T22:21:26.469Z,2.40
2018-07-20T22:23:54.769Z,2.70
2018-07-20T22:26:23.093Z,3.47
2018-07-20T22:28:51.431Z,3.57
2018-07-20T22:31:19.766Z,3.73
2018-07-20T22:33:48.090Z,2.67
2018-07-20T22:36:16.462Z,2.80
2018-07-20T22:38:44.780Z,2.97
2018-07-20T22:41:13.074Z,3.00
2018-07-20T22:43:41.404Z,3.97
2018-07-20T22:46:09.780Z,4.63
2018-07-20T22:48:38.095Z,3.87
2018-07-20T22:51:06.471Z,3.43
2018-07-20T22:53:34.853Z,3.60
2018-07-20T22:56:03.164Z,3.30
2018-07-20T22:58:31.477Z,3.03
2018-07-20T23:00:59.805Z,3.03
2018-07-20T23:03:28.161Z,3.20
2018-07-20T23:05:56.500Z,2.90
2018-07-20T23:08:24.821Z,3.93
2018-07-20T23:10:53.156Z,4.47
2018-07-20T23:13:21.502Z,2.63
2018-07-20T23:15:49.815Z,2.47
2018-07-20T23:18:18.134Z,2.27
2018-07-20T23:20:46.479Z,2.17
2018-07-20T23:23:14.822Z,1.97
2018-07-20T23:25:43.137Z,2.37
2018-07-20T23:28:11.473Z,2.10
2018-07-20T23:30:39.799Z,1.70
2018-07-20T23:33:08.136Z,2.37
2018-07-20T23:35:36.458Z,1.87
2018-07-20T23:38:04.892Z,2.00
2018-07-20T23:40:33.225Z,2.07
2018-07-20T23:43:01.556Z,2.20
2018-07-20T23:45:29.895Z,2.83
2018-07-20T23:47:58.318Z,2.13
2018-07-20T23:50:26.651Z,2.13
2018-07-20T23:52:54.996Z,2.50
2018-07-20T23:55:23.324Z,2.20
2018-07-20T23:57:51.689Z,2.57
